createdAt,value
2017-07-27T00:02:03.470Z,61.1
2017-07-27T00:07:03.718Z,60.9
2017-07-27T00:12:03.499Z,61.1
2017-07-27T00:17:03.403Z,60.8
2017-07-27T00:22:03.954Z,60.8
2017-07-27T00:27:03.842Z,60.9
2017-07-27T00:32:03.687Z,60.9
2017-07-27T00:37:03.305Z,60.8
2017-07-27T00:42:03.953Z,61.0
2017-07-27T00:47:03.830Z,61.0
2017-07-27T00:52:03.496Z,61.0
2017-07-27T00:57:03.340Z,61.0
2017-07-27T01:02:03.120Z,61.1
2017-07-27T01:07:03.843Z,60.9
2017-07-27T01:12:03.749Z,61.1
2017-07-27T01:17:03.683Z,61.1
2017-07-27T01:22:03.577Z,61.1
2017-07-27T01:27:03.294Z,61.2
2017-07-27T01:32:03.161Z,61.2
2017-07-27T01:37:03.938Z,61.2
2017-07-27T01:42:03.512Z,61.4
2017-07-27T01:47:03.470Z,60.9
2017-07-27T01:52:03.207Z,60.9
2017-07-27T01:57:03.985Z,61.1
2017-07-27T02:02:03.801Z,61.1
2017-07-27T02:07:03.857Z,61.2
2017-07-27T02:12:03.839Z,61.3
2017-07-27T02:17:03.627Z,61.3
2017-07-27T02:22:03.675Z,61.5
2017-07-27T02:27:03.439Z,61.4
2017-07-27T02:32:03.055Z,61.4
2017-07-27T02:37:03.803Z,61.4
2017-07-27T02:42:03.084Z,61.6
2017-07-27T02:47:03.466Z,61.5
2017-07-27T02:52:03.843Z,61.6
2017-07-27T02:57:03.104Z,61.6
2017-07-27T03:02:03.513Z,61.8
2017-07-27T03:07:03.877Z,61.7
2017-07-27T03:12:03.413Z,62.1
2017-07-27T03:17:04.484Z,62.2
2017-07-27T03:22:03.238Z,62.2
2017-07-27T03:27:03.616Z,62.0
2017-07-27T03:32:19.902Z,61.9
2017-07-27T03:37:03.550Z,62.0
2017-07-27T03:42:03.187Z,62.0
2017-07-27T03:47:22.276Z,62.0
2017-07-27T03:52:03.005Z,62.0
2017-07-27T03:57:03.331Z,62.0
2017-07-27T04:02:26.836Z,62.0
2017-07-27T04:07:03.521Z,62.0
2017-07-27T04:12:03.653Z,62.2
2017-07-27T04:17:26.845Z,62.3
2017-07-27T04:22:03.105Z,62.3
2017-07-27T04:27:03.743Z,62.4
2017-07-27T04:32:26.324Z,62.5
2017-07-27T04:37:03.894Z,62.6
2017-07-27T04:42:03.383Z,62.7
2017-07-27T04:47:28.584Z,62.8
2017-07-27T04:52:03.623Z,62.7
2017-07-27T04:57:03.051Z,62.8
2017-07-27T05:02:22.230Z,63.0
2017-07-27T05:07:03.485Z,62.9
2017-07-27T05:12:03.857Z,62.8
2017-07-27T05:17:32.145Z,62.8
2017-07-27T05:22:03.946Z,62.9
2017-07-27T05:27:03.403Z,62.8
2017-07-27T05:32:26.346Z,62.7
2017-07-27T05:37:03.623Z,62.9
2017-07-27T05:42:03.110Z,62.7
2017-07-27T05:47:28.825Z,62.7
2017-07-27T05:52:03.197Z,62.6
2017-07-27T05:57:03.710Z,62.6
2017-07-27T06:02:21.676Z,62.8
2017-07-27T06:07:03.560Z,62.7
2017-07-27T06:12:03.610Z,62.9
2017-07-27T06:17:24.015Z,61.9
2017-07-27T06:22:03.605Z,61.9
2017-07-27T06:27:04.021Z,61.6
2017-07-27T06:32:21.973Z,61.7
2017-07-27T06:37:03.570Z,61.7
2017-07-27T06:42:03.969Z,62.0
2017-07-27T06:47:25.235Z,62.2
2017-07-27T06:52:03.414Z,62.4
2017-07-27T06:57:03.754Z,61.9
2017-07-27T07:02:32.573Z,61.4
2017-07-27T07:07:03.309Z,61.4
2017-07-27T07:12:03.797Z,61.5
2017-07-27T07:17:29.147Z,61.4
2017-07-27T07:22:03.706Z,61.9
2017-07-27T07:27:03.152Z,61.9
2017-07-27T07:32:24.963Z,62.6
2017-07-27T07:37:03.909Z,62.6
2017-07-27T07:42:03.325Z,62.9
2017-07-27T07:47:28.573Z,62.9
2017-07-27T07:52:03.029Z,63.0
2017-07-27T07:57:03.497Z,63.0
2017-07-27T08:02:26.704Z,62.9
2017-07-27T08:07:03.971Z,62.8
2017-07-27T08:12:03.604Z,63.0
2017-07-27T08:17:29.459Z,62.5
2017-07-27T08:22:03.092Z,62.4
2017-07-27T08:27:03.670Z,62.3
2017-07-27T08:32:24.549Z,62.9
2017-07-27T08:37:03.505Z,62.9
2017-07-27T08:42:03.955Z,62.9
2017-07-27T08:47:22.166Z,63.0
2017-07-27T08:52:03.048Z,61.3
2017-07-27T08:57:03.593Z,61.2
2017-07-27T09:02:24.279Z,61.3
2017-07-27T09:07:03.762Z,61.2
2017-07-27T09:12:03.228Z,62.1
2017-07-27T09:17:22.465Z,62.1
2017-07-27T09:22:03.779Z,62.4
2017-07-27T09:27:03.194Z,62.4
2017-07-27T09:32:24.846Z,62.4
2017-07-27T09:37:03.772Z,62.4
2017-07-27T09:42:03.211Z,61.8
2017-07-27T09:47:28.551Z,61.8
2017-07-27T09:52:03.218Z,61.8
2017-07-27T09:57:03.619Z,62.1
2017-07-27T10:02:23.393Z,61.9
2017-07-27T10:07:03.869Z,62.3
2017-07-27T10:12:03.615Z,61.8
2017-07-27T10:17:27.092Z,61.5
2017-07-27T10:22:03.643Z,61.4
2017-07-27T10:27:03.069Z,61.4
2017-07-27T10:32:29.239Z,61.3
2017-07-27T10:37:03.755Z,60.9
2017-07-27T10:42:03.145Z,60.2
2017-07-27T10:47:28.727Z,60.4
2017-07-27T10:52:03.237Z,60.4
2017-07-27T10:57:03.650Z,60.8
2017-07-27T11:07:03.766Z,59.1
2017-07-27T11:12:03.874Z,59.8
2017-07-27T11:17:29.144Z,59.8
2017-07-27T11:22:03.850Z,60.6
2017-07-27T11:27:03.352Z,60.5
2017-07-27T11:32:24.740Z,60.0
2017-07-27T11:37:03.105Z,59.3
2017-07-27T11:42:03.573Z,59.1
2017-07-27T11:47:24.815Z,59.3
2017-07-27T11:52:03.929Z,58.5
2017-07-27T11:57:03.079Z,58.3
2017-07-27T12:02:22.124Z,58.0
2017-07-27T12:07:04.162Z,57.8
2017-07-27T12:12:03.526Z,57.5
2017-07-27T12:17:28.782Z,58.4
2017-07-27T12:22:03.794Z,58.4
2017-07-27T12:27:03.273Z,59.1
2017-07-27T12:32:25.041Z,60.0
2017-07-27T12:37:03.838Z,60.0
2017-07-27T12:42:03.195Z,63.0
2017-07-27T12:47:22.319Z,62.9
2017-07-27T12:52:03.535Z,62.9
2017-07-27T12:57:03.849Z,61.3
2017-07-27T13:02:21.515Z,59.3
2017-07-27T13:07:03.599Z,59.3
2017-07-27T13:12:03.255Z,59.4
2017-07-27T13:17:28.174Z,59.5
2017-07-27T13:22:03.847Z,59.5
2017-07-27T13:27:03.304Z,60.1
2017-07-27T13:32:23.595Z,61.9
2017-07-27T13:37:03.344Z,63.6
2017-07-27T13:42:03.782Z,63.6
2017-07-27T13:47:21.480Z,63.6
2017-07-27T13:52:03.290Z,63.0
2017-07-27T13:57:03.733Z,62.1
2017-07-27T14:02:25.980Z,61.6
2017-07-27T14:07:03.938Z,61.3
2017-07-27T14:12:03.682Z,61.2
2017-07-27T14:22:03.145Z,63.0
2017-07-27T14:27:03.624Z,63.0
2017-07-27T14:32:22.411Z,64.2
2017-07-27T14:37:03.827Z,64.2
2017-07-27T14:42:03.280Z,63.1
2017-07-27T14:47:28.596Z,58.8
2017-07-27T14:52:03.928Z,58.7
2017-07-27T14:57:03.470Z,58.6
2017-07-27T15:02:25.050Z,62.6
2017-07-27T15:07:03.939Z,62.6
2017-07-27T15:12:03.547Z,63.2
2017-07-27T15:17:29.277Z,63.2
2017-07-27T15:22:03.548Z,63.6
2017-07-27T15:27:03.942Z,63.4
2017-07-27T15:37:03.715Z,64.1
2017-07-27T15:42:03.140Z,64.2
2017-07-27T15:47:25.259Z,64.0
2017-07-27T15:52:03.039Z,64.0
2017-07-27T15:57:03.580Z,64.0
2017-07-27T16:02:24.421Z,64.1
2017-07-27T16:07:03.584Z,64.5
2017-07-27T16:12:03.192Z,64.4
2017-07-27T16:17:22.486Z,64.6
2017-07-27T16:22:03.672Z,64.4
2017-07-27T16:27:03.120Z,64.4
2017-07-27T16:32:21.116Z,64.7
2017-07-27T16:37:03.108Z,64.7
2017-07-27T16:42:03.694Z,64.9
2017-07-27T16:47:28.001Z,64.9
2017-07-27T16:52:03.046Z,65.1
2017-07-27T16:57:03.642Z,65.3
2017-07-27T17:02:19.094Z,65.4
2017-07-27T17:07:03.661Z,65.6
2017-07-27T17:12:03.242Z,65.5
2017-07-27T17:17:24.488Z,65.5
2017-07-27T17:22:03.200Z,66.0
2017-07-27T17:27:03.617Z,66.2
2017-07-27T17:37:03.708Z,66.5
2017-07-27T17:42:03.107Z,66.2
2017-07-27T17:47:28.626Z,66.5
2017-07-27T17:52:03.135Z,66.5
2017-07-27T17:57:03.504Z,66.4
2017-07-27T18:02:24.624Z,66.5
2017-07-27T18:07:03.246Z,66.6
2017-07-27T18:12:03.784Z,66.5
2017-07-27T18:17:29.039Z,66.5
2017-07-27T18:22:03.780Z,66.5
2017-07-27T18:27:03.398Z,66.5
2017-07-27T18:32:22.330Z,66.6
2017-07-27T18:37:03.292Z,66.7
2017-07-27T18:42:03.864Z,66.6
2017-07-27T18:47:23.341Z,66.6
2017-07-27T18:52:03.238Z,66.6
2017-07-27T18:57:03.217Z,66.5
2017-07-27T19:02:23.859Z,66.6
2017-07-27T19:07:03.947Z,66.6
2017-07-27T19:12:03.424Z,66.6
2017-07-27T19:17:24.393Z,66.5
2017-07-27T19:22:03.345Z,66.5
2017-07-27T19:27:03.708Z,66.6
2017-07-27T19:32:26.001Z,66.5
2017-07-27T19:37:03.298Z,66.5
2017-07-27T19:42:03.624Z,66.5
2017-07-27T19:47:05.822Z,66.6
2017-07-27T19:52:03.457Z,66.7
2017-07-27T19:57:03.778Z,66.6
2017-07-27T20:02:03.273Z,66.6
2017-07-27T20:07:03.659Z,66.6
2017-07-27T20:12:03.133Z,66.7
2017-07-27T20:17:03.848Z,66.7
2017-07-27T20:22:03.846Z,66.9
2017-07-27T20:27:03.167Z,66.5
2017-07-27T20:32:03.497Z,66.7
2017-07-27T20:37:03.830Z,66.7
2017-07-27T20:42:03.108Z,66.6
2017-07-27T20:47:03.476Z,66.6
2017-07-27T20:52:03.942Z,66.9
2017-07-27T20:57:03.131Z,66.8
2017-07-27T21:02:03.452Z,67.0
2017-07-27T21:07:04.039Z,66.8
2017-07-27T21:12:03.370Z,67.0
2017-07-27T21:17:03.713Z,66.9
2017-07-27T21:22:04.004Z,67.0
2017-07-27T21:27:03.446Z,67.0
2017-07-27T21:32:03.719Z,67.1
2017-07-27T21:37:03.059Z,67.0
2017-07-27T21:42:03.412Z,66.7
2017-07-27T21:47:03.644Z,66.8
2017-07-27T21:52:03.008Z,69.5
2017-07-27T21:57:03.360Z,69.8
2017-07-27T22:02:03.835Z,69.7
2017-07-27T22:07:03.362Z,69.4
2017-07-27T22:12:03.478Z,69.4
2017-07-27T22:22:03.853Z,67.0
2017-07-27T22:27:03.072Z,67.3
2017-07-27T22:32:03.613Z,67.3
2017-07-27T22:37:03.963Z,67.3
2017-07-27T22:42:03.412Z,67.3
2017-07-27T22:47:03.830Z,67.2
2017-07-27T22:52:03.635Z,67.2
2017-07-27T22:57:03.142Z,67.1
2017-07-27T23:02:03.816Z,67.1
2017-07-27T23:07:03.518Z,66.9
2017-07-27T23:12:03.237Z,66.9
2017-07-27T23:17:03.934Z,66.7
2017-07-27T23:22:03.725Z,66.7
2017-07-27T23:27:03.454Z,66.6
2017-07-27T23:32:03.025Z,66.6
2017-07-27T23:37:03.981Z,66.6
2017-07-27T23:42:03.655Z,66.7
2017-07-27T23:47:03.393Z,66.4
2017-07-27T23:52:03.716Z,66.4
2017-07-27T23:57:03.466Z,66.4
